createdAt,value
2023-03-16T00:00:38.197Z,94122.16
2023-03-16T00:03:05.007Z,94117.69
2023-03-16T00:05:32.162Z,94120.06
2023-03-16T00:08:01.244Z,94117.69
2023-03-16T00:10:30.092Z,94111.13
2023-03-16T00:13:02.863Z,94116.41
2023-03-16T00:15:31.635Z,94118.03
2023-03-16T00:18:03.820Z,94135.47
2023-03-16T00:20:33.749Z,94129.16
2023-03-16T00:23:06.201Z,94124.91
2023-03-16T00:25:35.032Z,94128.59
2023-03-16T00:28:03.764Z,94139.72
2023-03-16T00:30:32.744Z,94123.88
2023-03-16T00:32:59.565Z,94126.50
2023-03-16T00:35:34.772Z,94131.78
2023-03-16T00:38:04.058Z,94138.69
2023-03-16T00:40:30.822Z,94146.59
2023-03-16T00:42:59.895Z,94132.56
2023-03-16T00:45:26.619Z,94145.56
2023-03-16T00:47:54.349Z,94147.94
2023-03-16T00:50:23.139Z,94146.13
2023-03-16T00:52:49.848Z,94141.88
2023-03-16T00:55:19.686Z,94138.69
2023-03-16T00:57:46.438Z,94141.88
2023-03-16T01:00:16.813Z,94141.06
2023-03-16T01:02:46.625Z,94147.94
2023-03-16T01:05:16.527Z,94147.16
2023-03-16T01:07:45.821Z,94152.44
2023-03-16T01:10:12.829Z,94156.13
2023-03-16T01:12:41.619Z,94152.44
2023-03-16T01:15:12.055Z,94155.88
2023-03-16T01:17:43.866Z,94147.16
2023-03-16T01:20:15.104Z,94145.09
2023-03-16T01:22:42.337Z,94141.88
2023-03-16T01:25:13.433Z,94147.16
2023-03-16T01:27:45.441Z,94147.94
2023-03-16T01:30:14.722Z,94154.03
2023-03-16T01:32:46.225Z,94154.03
2023-03-16T01:35:13.102Z,94154.25
2023-03-16T01:37:41.977Z,94153.47
2023-03-16T01:40:11.985Z,94159.53
2023-03-16T01:42:47.960Z,94155.28
2023-03-16T01:45:53.025Z,94170.09
2023-03-16T01:48:23.156Z,94163.47
2023-03-16T01:50:53.791Z,94159.53
2023-03-16T01:53:22.913Z,94166.19
2023-03-16T01:55:49.638Z,94162.19
2023-03-16T01:58:18.605Z,94170.91
2023-03-16T02:00:49.958Z,94174.34
2023-03-16T02:03:17.617Z,94172.75
2023-03-16T02:05:52.884Z,94182.50
2023-03-16T02:08:24.631Z,94184.13
2023-03-16T02:10:54.735Z,94184.13
2023-03-16T02:13:22.760Z,94186.97
2023-03-16T02:15:51.828Z,94192.25
2023-03-16T02:18:23.952Z,94193.06
2023-03-16T02:21:25.608Z,94199.94
2023-03-16T02:23:52.142Z,94193.84
2023-03-16T02:26:24.906Z,94204.41
2023-03-16T02:29:06.872Z,94207.31
2023-03-16T02:31:35.803Z,94214.41
2023-03-16T02:34:08.028Z,94204.66
2023-03-16T02:36:37.363Z,94214.19
2023-03-16T02:39:06.718Z,94209.38
2023-03-16T02:41:35.695Z,94208.91
2023-03-16T02:44:24.808Z,94213.16
2023-03-16T02:46:52.785Z,94211.78
2023-03-16T02:49:25.594Z,94221.53
2023-03-16T02:51:54.924Z,94222.91
2023-03-16T02:54:21.613Z,94227.38
2023-03-16T02:56:51.649Z,94224.75
2023-03-16T02:59:18.448Z,94224.19
2023-03-16T03:01:47.294Z,94228.44
2023-03-16T03:04:14.044Z,94225.22
2023-03-16T03:06:41.890Z,94224.97
2023-03-16T03:09:11.819Z,94221.53
2023-03-16T03:11:38.556Z,94226.81
2023-03-16T03:14:09.869Z,94230.50
2023-03-16T03:16:39.152Z,94244.25
2023-03-16T03:19:10.481Z,94247.69
2023-03-16T03:21:39.353Z,94245.28
2023-03-16T03:24:06.370Z,94244.72
2023-03-16T03:26:35.356Z,94246.34
2023-03-16T03:29:02.467Z,94251.63
2023-03-16T03:31:29.186Z,94255.03
2023-03-16T03:33:58.081Z,94259.53
2023-03-16T03:36:26.932Z,94251.63
2023-03-16T03:38:55.750Z,94256.88
2023-03-16T03:41:22.565Z,94258.50
2023-03-16T03:43:54.590Z,94258.50
2023-03-16T03:46:23.462Z,94262.97
2023-03-16T03:48:50.225Z,94272.72
2023-03-16T03:51:19.047Z,94273.50
2023-03-16T03:53:47.868Z,94282.47
2023-03-16T03:56:19.189Z,94284.91
2023-03-16T03:58:48.062Z,94292.81
2023-03-16T04:01:14.665Z,94290.38
2023-03-16T04:03:45.221Z,94298.31
2023-03-16T04:06:14.101Z,94299.13
2023-03-16T04:08:40.750Z,94299.13
2023-03-16T04:11:07.532Z,94292.25
2023-03-16T04:13:36.612Z,94297.53
2023-03-16T04:16:03.336Z,94292.25
2023-03-16T04:18:32.766Z,94294.06
2023-03-16T04:20:59.456Z,94293.03
2023-03-16T04:23:26.111Z,94295.66
2023-03-16T04:25:52.798Z,94300.16
2023-03-16T04:28:21.514Z,94299.13
2023-03-16T04:30:50.661Z,94307.03
2023-03-16T04:33:17.420Z,94308.09
2023-03-16T04:35:48.774Z,94318.63
2023-03-16T04:38:17.750Z,94318.03
2023-03-16T04:40:46.777Z,94315.19
2023-03-16T04:43:17.433Z,94322.28
2023-03-16T04:45:49.414Z,94322.88
2023-03-16T04:48:18.386Z,94327.56
2023-03-16T04:50:45.170Z,94333.66
2023-03-16T04:53:14.797Z,94341.78
2023-03-16T04:55:42.099Z,94348.69
2023-03-16T04:58:11.309Z,94352.34
2023-03-16T05:00:40.138Z,94362.13
2023-03-16T05:03:10.370Z,94347.88
2023-03-16T05:05:39.975Z,94368.19
2023-03-16T05:08:10.981Z,94359.69
2023-03-16T05:10:42.932Z,94356.03
2023-03-16T05:13:14.868Z,94361.31
2023-03-16T05:15:43.791Z,94363.94
2023-03-16T05:18:10.423Z,94370.03
2023-03-16T05:20:42.176Z,94374.28
2023-03-16T05:23:11.745Z,94376.34
2023-03-16T05:25:40.765Z,94370.25
2023-03-16T05:28:07.452Z,94378.16
2023-03-16T05:30:38.742Z,94382.41
2023-03-16T05:33:07.667Z,94383.25
2023-03-16T05:35:37.005Z,94381.84
2023-03-16T05:38:09.957Z,94386.09
2023-03-16T05:40:37.318Z,94392.19
2023-03-16T05:43:04.596Z,94391.38
2023-03-16T05:45:31.382Z,94388.72
2023-03-16T05:48:00.191Z,94396.66
2023-03-16T05:50:29.507Z,94398.25
2023-03-16T05:53:01.106Z,94401.94
2023-03-16T05:55:29.870Z,94409.84
2023-03-16T05:57:58.784Z,94421.22
2023-03-16T06:00:26.102Z,94410.88
2023-03-16T06:02:55.516Z,94420.66
2023-03-16T06:05:24.432Z,94417.41
2023-03-16T06:07:52.156Z,94420.88
2023-03-16T06:10:18.958Z,94420.88
2023-03-16T06:12:48.549Z,94426.72
2023-03-16T06:15:17.446Z,94438.88
2023-03-16T06:17:44.788Z,94428.31
2023-03-16T06:20:13.111Z,94440.50
2023-03-16T06:22:43.127Z,94442.91
2023-03-16T06:25:11.024Z,94449.81
2023-03-16T06:27:40.246Z,94450.00
2023-03-16T06:30:08.765Z,94448.97
2023-03-16T06:32:36.388Z,94455.91
2023-03-16T06:35:03.678Z,94456.69
2023-03-16T06:37:33.591Z,94461.19
2023-03-16T06:40:00.429Z,94470.72
2023-03-16T06:42:27.216Z,94464.41
2023-03-16T06:44:53.975Z,94473.34
2023-03-16T06:47:25.309Z,94471.75
2023-03-16T06:49:54.372Z,94479.41
2023-03-16T06:52:23.682Z,94488.88
2023-03-16T06:54:53.091Z,94485.13
2023-03-16T06:57:25.023Z,94494.63
2023-03-16T06:59:55.352Z,94505.09
2023-03-16T07:02:24.319Z,94493.81
2023-03-16T07:04:53.101Z,94507.88
2023-03-16T07:07:21.978Z,94504.81
2023-03-16T07:09:50.859Z,94511.56
2023-03-16T07:17:45.381Z,94516.34
2023-03-16T07:20:14.753Z,94516.13
2023-03-16T07:22:43.716Z,94521.78
2023-03-16T07:25:16.180Z,94517.94
2023-03-16T07:27:50.023Z,94527.44
2023-03-16T07:30:19.039Z,94530.66
2023-03-16T07:32:45.796Z,94528.41
2023-03-16T07:35:17.179Z,94531.41
2023-03-16T07:37:47.225Z,94528.56
2023-03-16T07:40:14.529Z,94544.75
2023-03-16T07:42:45.870Z,94530.56
2023-03-16T07:45:14.786Z,94548.38
2023-03-16T07:47:41.795Z,94541.47
2023-03-16T07:50:11.624Z,94540.63
2023-03-16T07:52:38.347Z,94542.22
2023-03-16T07:55:05.490Z,94539.34
2023-03-16T07:57:34.593Z,94543.34
2023-03-16T08:00:09.216Z,94538.25
2023-03-16T08:02:38.387Z,94535.59
2023-03-16T08:05:10.095Z,94546.09
2023-03-16T08:07:38.900Z,94547.28
2023-03-16T08:10:08.241Z,94550.09
2023-03-16T08:12:37.232Z,94549.25
2023-03-16T08:15:05.959Z,94553.22
2023-03-16T08:17:32.648Z,94560.50
2023-03-16T08:19:59.789Z,94566.22
2023-03-16T08:25:10.854Z,94570.81
2023-03-16T08:27:43.014Z,94574.28
2023-03-16T08:30:13.817Z,94581.16
2023-03-16T08:32:41.139Z,94576.31
2023-03-16T08:35:09.704Z,94575.09
2023-03-16T08:37:39.505Z,94579.50
2023-03-16T08:40:14.280Z,94570.56
2023-03-16T08:42:43.128Z,94570.31
2023-03-16T08:45:14.210Z,94576.47
2023-03-16T08:47:43.561Z,94572.75
2023-03-16T08:50:12.074Z,94578.94
2023-03-16T08:52:41.061Z,94586.00
2023-03-16T08:55:10.453Z,94587.50
2023-03-16T08:57:38.797Z,94591.47
2023-03-16T09:00:15.357Z,94578.88
2023-03-16T09:02:48.133Z,94586.25
2023-03-16T09:05:16.052Z,94585.88
2023-03-16T09:07:43.706Z,94595.16
2023-03-16T09:10:13.986Z,94585.72
2023-03-16T09:12:41.046Z,94590.06
2023-03-16T09:15:12.377Z,94586.72
2023-03-16T09:17:43.780Z,94602.84
2023-03-16T09:20:22.419Z,94599.47
2023-03-16T09:22:52.579Z,94602.41
2023-03-16T09:25:22.713Z,94602.09
2023-03-16T09:27:51.569Z,94606.50
2023-03-16T09:30:20.750Z,94596.66
2023-03-16T09:32:49.013Z,94601.06
2023-03-16T09:35:18.133Z,94604.63
2023-03-16T09:38:05.216Z,94602.13
2023-03-16T09:40:33.313Z,94591.47
2023-03-16T09:43:26.519Z,94601.16
2023-03-16T09:46:08.530Z,94607.16
2023-03-16T09:48:40.872Z,94609.13
2023-03-16T09:51:13.554Z,94612.72
2023-03-16T09:53:40.316Z,94618.38
2023-03-16T09:56:17.018Z,94608.13
2023-03-16T09:58:43.939Z,94621.50
2023-03-16T10:01:16.660Z,94616.31
2023-03-16T10:04:08.656Z,94614.25
2023-03-16T10:06:38.869Z,94625.41
2023-03-16T10:09:38.428Z,94613.94
2023-03-16T10:12:06.303Z,94608.19
2023-03-16T10:14:49.590Z,94620.38
2023-03-16T10:17:30.889Z,94612.81
2023-03-16T10:19:58.139Z,94612.56
2023-03-16T10:22:27.170Z,94612.13
2023-03-16T10:24:59.766Z,94611.66
2023-03-16T10:27:31.598Z,94610.16
2023-03-16T10:29:58.476Z,94619.84
2023-03-16T10:32:29.559Z,94611.44
2023-03-16T10:35:00.802Z,94609.59
2023-03-16T10:37:29.618Z,94601.44
2023-03-16T10:40:01.696Z,94609.13
2023-03-16T10:42:30.766Z,94616.13
2023-03-16T10:45:02.658Z,94615.59
2023-03-16T10:47:31.694Z,94611.44
2023-03-16T10:50:14.694Z,94616.28
2023-03-16T10:52:47.346Z,94608.91
2023-03-16T10:55:21.477Z,94615.59
2023-03-16T10:57:50.040Z,94619.84
2023-03-16T11:00:20.961Z,94614.91
2023-03-16T11:02:54.384Z,94612.47
2023-03-16T11:05:29.668Z,94614.09
2023-03-16T11:08:02.661Z,94614.91
2023-03-16T11:10:36.212Z,94620.78
2023-03-16T11:13:17.731Z,94621.34
2023-03-16T11:16:01.685Z,94619.16
2023-03-16T11:18:32.568Z,94620.78
2023-03-16T11:21:03.298Z,94611.22
2023-03-16T11:23:32.920Z,94615.69
2023-03-16T11:26:02.063Z,94619.50
2023-03-16T11:28:38.933Z,94620.88
2023-03-16T11:31:11.941Z,94621.69
2023-03-16T11:33:40.874Z,94614.44
2023-03-16T11:36:29.988Z,94621.34
2023-03-16T11:39:04.742Z,94618.69
2023-03-16T11:41:43.595Z,94611.78
2023-03-16T11:44:37.792Z,94616.06
2023-03-16T11:47:16.537Z,94620.56
2023-03-16T11:50:03.789Z,94618.13
2023-03-16T11:52:52.113Z,94623.41
2023-03-16T11:55:30.985Z,94627.09
2023-03-16T11:58:07.288Z,94617.31
2023-03-16T12:00:59.090Z,94627.88
2023-03-16T12:03:31.990Z,94625.50
2023-03-16T12:06:17.022Z,94630.78
2023-03-16T12:08:53.735Z,94633.19
2023-03-16T12:11:31.170Z,94630.78
2023-03-16T12:14:19.191Z,94636.28
2023-03-16T12:17:02.743Z,94649.28
2023-03-16T12:19:30.625Z,94640.31
2023-03-16T12:22:33.830Z,94643.44
2023-03-16T12:25:00.656Z,94648.72
2023-03-16T12:27:33.491Z,94656.66
2023-03-16T12:30:28.263Z,94657.22
2023-03-16T12:33:34.301Z,94652.41
2023-03-16T12:36:17.004Z,94655.72
2023-03-16T12:38:53.384Z,94659.41
2023-03-16T12:42:08.546Z,94659.41
2023-03-16T12:44:57.434Z,94662.47
2023-03-16T12:47:32.180Z,94672.50
2023-03-16T12:50:12.748Z,94667.19
2023-03-16T12:52:49.936Z,94672.50
2023-03-16T12:55:34.916Z,94678.81
2023-03-16T12:58:02.988Z,94671.69
2023-03-16T13:00:57.043Z,94679.06
2023-03-16T13:03:25.326Z,94686.75
2023-03-16T13:06:03.426Z,94687.56
2023-03-16T13:08:41.417Z,94685.13
2023-03-16T13:11:10.018Z,94692.03
2023-03-16T13:13:52.255Z,94698.16
2023-03-16T13:16:38.547Z,94688.34
2023-03-16T13:19:17.871Z,94696.28
2023-03-16T13:21:46.670Z,94692.84
2023-03-16T13:24:30.394Z,94697.31
2023-03-16T13:27:02.794Z,94698.94
2023-03-16T13:29:31.193Z,94703.44
2023-03-16T13:32:08.758Z,94696.06
2023-03-16T13:34:44.885Z,94701.38
2023-03-16T13:37:14.598Z,94705.84
2023-03-16T13:39:41.728Z,94701.38
2023-03-16T13:42:08.394Z,94701.38
2023-03-16T13:44:35.030Z,94708.25
2023-03-16T13:47:05.615Z,94712.53
2023-03-16T13:49:34.510Z,94715.75
2023-03-16T13:52:06.063Z,94709.41
2023-03-16T13:54:32.830Z,94710.44
2023-03-16T13:57:03.062Z,94721.28
2023-03-16T13:59:35.009Z,94710.69
2023-03-16T14:02:04.069Z,94719.22
2023-03-16T14:04:36.081Z,94720.47
2023-03-16T14:07:03.753Z,94721.28
2023-03-16T14:09:34.619Z,94732.66
2023-03-16T14:12:01.647Z,94728.97
2023-03-16T14:14:32.408Z,94730.00
2023-03-16T14:17:10.651Z,94730.00
2023-03-16T14:19:49.984Z,94731.03
2023-03-16T14:22:23.480Z,94740.00
2023-03-16T14:24:59.379Z,94746.13
2023-03-16T14:27:29.869Z,94740.00
2023-03-16T14:30:01.676Z,94740.81
2023-03-16T14:32:30.651Z,94746.91
2023-03-16T14:35:20.586Z,94745.75
2023-03-16T14:37:49.437Z,94760.34
2023-03-16T14:40:30.860Z,94755.88
2023-03-16T14:42:59.422Z,94750.59
2023-03-16T14:45:38.455Z,94755.06
2023-03-16T14:48:16.992Z,94761.16
2023-03-16T14:50:43.776Z,94759.56
2023-03-16T14:53:10.582Z,94768.53
2023-03-16T14:55:39.640Z,94770.13
2023-03-16T14:58:10.003Z,94763.94
2023-03-16T15:00:50.230Z,94775.81
2023-03-16T15:03:20.677Z,94774.06
2023-03-16T15:05:48.664Z,94770.97
2023-03-16T15:08:23.722Z,94781.78
2023-03-16T15:10:52.541Z,94791.09
2023-03-16T15:13:40.760Z,94785.25
2023-03-16T15:16:11.481Z,94784.19
2023-03-16T15:18:40.670Z,94785.81
2023-03-16T15:21:26.287Z,94797.19
2023-03-16T15:23:53.138Z,94800.06
2023-03-16T15:26:24.907Z,94789.50
2023-03-16T15:28:52.035Z,94802.72
2023-03-16T15:31:21.591Z,94804.53
2023-03-16T15:33:48.369Z,94814.34
2023-03-16T15:36:18.909Z,94813.31
2023-03-16T15:38:49.859Z,94810.06
2023-03-16T15:41:16.519Z,94809.03
2023-03-16T15:43:45.533Z,94812.13
2023-03-16T15:46:18.063Z,94811.09
2023-03-16T15:48:47.812Z,94814.34
2023-03-16T15:51:27.568Z,94817.78
2023-03-16T15:53:57.013Z,94826.53
2023-03-16T15:56:30.264Z,94828.34
2023-03-16T15:59:04.255Z,94826.53
2023-03-16T16:01:37.757Z,94831.81
2023-03-16T16:04:05.432Z,94835.50
2023-03-16T16:06:32.531Z,94837.09
2023-03-16T16:09:01.690Z,94839.34
2023-03-16T16:11:28.358Z,94841.84
2023-03-16T16:13:56.002Z,94850.22
2023-03-16T16:16:25.233Z,94848.91
2023-03-16T16:18:51.963Z,94849.34
2023-03-16T16:21:23.159Z,94861.28
2023-03-16T16:23:53.368Z,94855.22
2023-03-16T16:26:50.882Z,94864.19
2023-03-16T16:29:30.249Z,94865.22
2023-03-16T16:31:59.143Z,94860.94
2023-03-16T16:34:31.181Z,94876.78
2023-03-16T16:36:57.912Z,94875.19
2023-03-16T16:39:24.887Z,94874.59
2023-03-16T16:41:55.030Z,94886.59
2023-03-16T16:44:23.801Z,94884.16
2023-03-16T16:46:50.884Z,94878.28
2023-03-16T16:49:31.291Z,94883.56
2023-03-16T16:51:58.424Z,94884.59
2023-03-16T16:54:27.474Z,94885.41
2023-03-16T16:56:57.661Z,94900.47
2023-03-16T16:59:32.472Z,94893.13
2023-03-16T17:02:03.966Z,94895.16
2023-03-16T17:04:30.907Z,94897.22
2023-03-16T17:07:02.080Z,94895.63
2023-03-16T17:09:31.298Z,94898.03
2023-03-16T17:11:59.172Z,94899.44
2023-03-16T17:14:28.471Z,94905.75
2023-03-16T17:16:58.389Z,94904.13
2023-03-16T17:19:29.196Z,94904.97
2023-03-16T17:21:57.480Z,94913.69
2023-03-16T17:24:24.668Z,94909.44
2023-03-16T17:26:56.049Z,94910.47
2023-03-16T17:29:36.616Z,94915.97
2023-03-16T17:32:09.398Z,94913.53
2023-03-16T17:34:38.422Z,94918.00
2023-03-16T17:37:09.932Z,94924.91
2023-03-16T17:39:37.100Z,94913.50
2023-03-16T17:42:18.479Z,94925.19
2023-03-16T17:44:52.150Z,94937.03
2023-03-16T17:47:25.291Z,94933.34
2023-03-16T17:49:53.816Z,94938.00
2023-03-16T17:52:25.801Z,94944.66
2023-03-16T17:54:53.249Z,94945.69
2023-03-16T17:57:32.726Z,94939.81
2023-03-16T18:00:02.269Z,94937.75
2023-03-16T18:02:51.436Z,94947.16
2023-03-16T18:05:32.659Z,94942.00
2023-03-16T18:08:16.802Z,94945.25
2023-03-16T18:10:46.743Z,94946.66
2023-03-16T18:13:17.790Z,94949.88
2023-03-16T18:15:45.142Z,94951.88
2023-03-16T18:18:18.060Z,94951.44
2023-03-16T18:20:46.904Z,94956.78
2023-03-16T18:23:24.201Z,94958.84
2023-03-16T18:25:52.652Z,94958.03
2023-03-16T18:28:22.021Z,94957.53
2023-03-16T18:30:52.483Z,94962.81
2023-03-16T18:33:25.684Z,94961.56
2023-03-16T18:35:53.823Z,94969.44
2023-03-16T18:38:26.791Z,94969.66
2023-03-16T18:40:53.399Z,94966.44
2023-03-16T18:43:20.186Z,94966.44
2023-03-16T18:45:46.960Z,94966.44
2023-03-16T18:48:23.424Z,94962.19
2023-03-16T18:50:50.123Z,94970.09
2023-03-16T18:53:16.970Z,94970.91
2023-03-16T18:55:46.402Z,94965.84
2023-03-16T18:58:17.912Z,94976.56
2023-03-16T19:00:46.313Z,94972.88
2023-03-16T19:03:23.579Z,94976.56
2023-03-16T19:05:50.337Z,94976.56
2023-03-16T19:08:22.708Z,94985.53
2023-03-16T19:10:56.472Z,94983.91
2023-03-16T19:13:24.248Z,94990.81
2023-03-16T19:15:54.286Z,94983.91
2023-03-16T19:18:22.617Z,94987.59
2023-03-16T19:20:50.320Z,94989.19
2023-03-16T19:23:21.802Z,94980.69
2023-03-16T19:25:56.083Z,94999.19
2023-03-16T19:28:36.786Z,94989.66
2023-03-16T19:31:15.530Z,94994.09
2023-03-16T19:33:42.369Z,94994.09
2023-03-16T19:36:30.347Z,94995.94
2023-03-16T19:38:57.749Z,94995.34
2023-03-16T19:41:31.417Z,94995.34
2023-03-16T19:44:01.063Z,94993.72
2023-03-16T19:46:28.188Z,94994.19
2023-03-16T19:48:57.248Z,94994.19
2023-03-16T19:51:25.998Z,94996.81
2023-03-16T19:53:55.080Z,95003.13
2023-03-16T19:56:21.902Z,94999.91
2023-03-16T19:58:50.724Z,95006.81
2023-03-16T20:01:19.425Z,95008.88
2023-03-16T20:03:48.944Z,95003.56
2023-03-16T20:06:19.309Z,94999.72
2023-03-16T20:08:48.451Z,95006.03
2023-03-16T20:11:19.588Z,95016.63
2023-03-16T20:13:46.863Z,95008.09
2023-03-16T20:16:22.056Z,95017.06
2023-03-16T20:18:52.109Z,95023.97
2023-03-16T20:21:18.811Z,95021.56
2023-03-16T20:23:45.659Z,95026.00
2023-03-16T20:26:26.856Z,95028.06
2023-03-16T20:28:53.750Z,95023.81
2023-03-16T20:31:25.113Z,95028.06
2023-03-16T20:33:54.702Z,95028.50
2023-03-16T20:36:23.997Z,95034.59
2023-03-16T20:38:52.968Z,95032.19
2023-03-16T20:41:24.489Z,95026.06
2023-03-16T20:43:51.724Z,95022.84
2023-03-16T20:46:26.204Z,95022.00
2023-03-16T20:48:53.494Z,95029.94
2023-03-16T20:51:20.204Z,95024.31
2023-03-16T20:53:47.458Z,95029.78
2023-03-16T20:56:15.350Z,95025.53
2023-03-16T20:58:44.366Z,95029.00
2023-03-16T21:01:17.828Z,95032.63
2023-03-16T21:03:54.333Z,95035.50
2023-03-16T21:06:24.358Z,95036.53
2023-03-16T21:08:54.511Z,95039.19
2023-03-16T21:11:37.901Z,95039.63
2023-03-16T21:14:06.462Z,95039.63
2023-03-16T21:16:33.455Z,95040.63
2023-03-16T21:19:00.122Z,95037.19
2023-03-16T21:21:26.938Z,95040.84
2023-03-16T21:23:55.972Z,95043.69
2023-03-16T21:26:26.384Z,95042.06
2023-03-16T21:28:57.942Z,95044.94
2023-03-16T21:31:24.807Z,95044.94
2023-03-16T21:33:54.465Z,95052.06
2023-03-16T21:36:22.600Z,95039.84
2023-03-16T21:38:49.987Z,95044.53
2023-03-16T21:41:21.431Z,95040.88
2023-03-16T21:43:49.923Z,95046.94
2023-03-16T21:46:18.440Z,95044.53
2023-03-16T21:48:48.956Z,95048.19
2023-03-16T21:51:20.201Z,95046.56
2023-03-16T21:53:49.678Z,95041.28
2023-03-16T21:56:22.550Z,95044.97
2023-03-16T21:58:51.975Z,95042.53
2023-03-16T22:01:25.856Z,95040.09
2023-03-16T22:03:58.363Z,95043.75
2023-03-16T22:06:31.559Z,95050.66
2023-03-16T22:08:58.616Z,95045.38
2023-03-16T22:11:29.977Z,95045.38
2023-03-16T22:13:57.811Z,95049.84
2023-03-16T22:16:30.030Z,95054.50
2023-03-16T22:19:00.447Z,95051.56
2023-03-16T22:21:42.288Z,95055.03
2023-03-16T22:24:18.840Z,95058.81
2023-03-16T22:26:49.284Z,95051.34
2023-03-16T22:29:28.219Z,95050.66
2023-03-16T22:32:05.006Z,95051.91
2023-03-16T22:34:49.726Z,95055.56
2023-03-16T22:37:23.189Z,95060.44
2023-03-16T22:39:54.591Z,95065.75
2023-03-16T22:42:38.063Z,95069.38
2023-03-16T22:45:21.436Z,95068.59
2023-03-16T22:47:50.954Z,95066.75
2023-03-16T22:50:22.202Z,95076.50
2023-03-16T22:52:49.468Z,95075.06
2023-03-16T22:55:20.470Z,95077.94
2023-03-16T22:57:47.426Z,95073.84
2023-03-16T23:00:14.515Z,95089.69
2023-03-16T23:02:41.357Z,95091.69
2023-03-16T23:05:25.652Z,95094.53
2023-03-16T23:07:54.658Z,95095.72
2023-03-16T23:10:23.334Z,95104.88
2023-03-16T23:12:53.273Z,95102.63
2023-03-16T23:15:25.567Z,95104.66
2023-03-16T23:17:54.609Z,95110.53
2023-03-16T23:20:28.781Z,95115.19
2023-03-16T23:22:55.669Z,95111.34
2023-03-16T23:25:25.105Z,95115.19
2023-03-16T23:27:54.567Z,95112.34
2023-03-16T23:30:27.459Z,95124.09
2023-03-16T23:32:54.532Z,95126.53
2023-03-16T23:35:24.318Z,95115.56
2023-03-16T23:37:53.101Z,95125.75
2023-03-16T23:40:22.108Z,95127.38
2023-03-16T23:42:53.068Z,95125.31
2023-03-16T23:45:42.722Z,95135.69
2023-03-16T23:48:13.777Z,95135.50
2023-03-16T23:50:40.991Z,95133.44
2023-03-16T23:53:15.079Z,95135.88
2023-03-16T23:55:44.238Z,95134.66
2023-03-16T23:58:13.173Z,95129.38
